Time;durP1;ratioP1;P1;durP2;ratioP2;P2;SDS_P1;SDS_P2;PMS_P1;PMS_P2;Temp;Humidity;BMP_temperature;BMP_pressure;BME280_temperature;BME280_humidity;BME280_pressure;Samples;Min_cycle;Max_cycle;Signal;HPM_P1;HPM_P2
2023/01/17 00:01:10;;;;;;;3.30;0.82;;;;;;;1.69;100.00;98626.31;5258967;28;20031;-78
2023/01/17 00:12:08;;;;;;;10.80;1.98;;;;;;;1.46;100.00;98620.84;5247934;28;20104;-78
2023/01/17 00:14:38;;;;;;;9.10;2.40;;;;;;;1.44;100.00;98620.16;5247324;28;20120;-78
2023/01/17 00:17:09;;;;;;;16.10;3.00;;;;;;;1.42;100.00;98624.78;5243135;28;20039;-78
2023/01/17 01:34:18;;;;;;;22.42;6.50;;;;;;;0.27;100.00;98676.22;5250538;28;20031;-77
2023/01/17 01:36:48;;;;;;;17.55;6.82;;;;;;;0.21;100.00;98672.38;5252073;28;20024;-77
2023/01/17 01:39:19;;;;;;;16.92;6.63;;;;;;;0.20;100.00;98677.78;5238425;28;20150;-77
2023/01/17 01:41:49;;;;;;;15.23;7.13;;;;;;;0.19;100.00;98687.50;5251366;28;20042;-77
2023/01/17 01:44:49;;;;;;;18.23;6.10;;;;;;;0.17;100.00;98686.03;5249279;22;21026;-73
2023/01/17 01:47:22;;;;;;;17.95;6.35;;;;;;;0.13;100.00;98703.94;5269727;28;20038;-73
2023/01/17 01:49:53;;;;;;;17.75;6.43;;;;;;;0.09;100.00;98694.69;5288642;28;20027;-75
2023/01/17 01:52:29;;;;;;;18.75;6.78;;;;;;;0.09;100.00;98699.13;5267281;28;20023;-74
2023/01/17 01:55:05;;;;;;;17.52;6.30;;;;;;;0.07;100.00;98709.00;5249380;28;20024;-74
2023/01/17 01:57:41;;;;;;;14.43;6.93;;;;;;;0.07;100.00;98711.66;5267186;28;20020;-74
2023/01/17 02:00:25;;;;;;;14.77;5.80;;;;;;;0.04;100.00;98712.75;5266880;28;20020;-74
2023/01/17 02:03:02;;;;;;;20.33;6.30;;;;;;;0.04;100.00;98723.31;5267692;28;20043;-75
2023/01/17 02:05:34;;;;;;;16.35;6.03;;;;;;;0.08;100.00;98726.47;5266886;28;20034;-74
2023/01/17 02:08:11;;;;;;;20.27;6.40;;;;;;;0.16;100.00;98722.13;5236301;28;20054;-74
2023/01/17 02:10:45;;;;;;;24.08;6.72;;;;;;;0.22;100.00;98733.84;5267053;28;20024;-74
2023/01/17 02:13:19;;;;;;;20.10;7.47;;;;;;;0.27;100.00;98741.31;5266869;28;20333;-73
2023/01/17 02:16:12;;;;;;;14.88;5.22;;;;;;;0.29;100.00;98737.53;5265019;28;20081;-73
2023/01/17 02:19:02;;;;;;;17.48;5.63;;;;;;;0.33;100.00;98746.81;5267345;28;20030;-73
2023/01/17 02:21:46;;;;;;;22.25;6.32;;;;;;;0.35;100.00;98754.56;5266601;28;20035;-73
2023/01/17 02:25:03;;;;;;;15.23;5.50;;;;;;;0.35;100.00;98758.06;5266983;28;20051;-74
2023/01/17 02:27:51;;;;;;;15.60;6.00;;;;;;;0.34;100.00;98760.81;5176252;28;20547;-74
2023/01/17 02:30:32;;;;;;;16.02;6.28;;;;;;;0.38;100.00;98767.44;5266634;28;20032;-73
2023/01/17 02:33:19;;;;;;;17.48;5.95;;;;;;;0.37;100.00;98765.81;5266872;28;20047;-73
2023/01/17 02:36:22;;;;;;;14.05;6.07;;;;;;;0.34;100.00;98768.72;5266857;28;20540;-73
2023/01/17 02:39:00;;;;;;;13.57;5.93;;;;;;;0.29;100.00;98765.72;5267169;28;20346;-73
2023/01/17 02:41:35;;;;;;;15.40;6.40;;;;;;;0.22;100.00;98758.41;5253421;28;20059;-73
2023/01/17 02:44:14;;;;;;;14.02;5.97;;;;;;;0.17;100.00;98759.84;5266732;28;20199;-73
2023/01/17 02:46:52;;;;;;;13.20;5.63;;;;;;;0.08;100.00;98761.59;5265969;28;20024;-74
2023/01/17 02:49:27;;;;;;;13.80;5.75;;;;;;;0.00;100.00;98766.78;5266514;28;20544;-73
2023/01/17 02:51:58;;;;;;;18.10;6.72;;;;;;;-0.06;100.00;98772.63;5266322;28;20378;-73
2023/01/17 02:54:53;;;;;;;14.95;6.00;;;;;;;-0.12;100.00;98773.25;5266853;28;20069;-73
2023/01/17 02:57:45;;;;;;;17.17;6.05;;;;;;;-0.14;100.00;98775.22;5266103;28;20038;-73
2023/01/17 03:00:20;;;;;;;28.52;6.50;;;;;;;-0.10;100.00;98779.19;5265909;28;20024;-72
2023/01/17 03:03:19;;;;;;;18.65;6.20;;;;;;;-0.11;100.00;98777.53;5266560;28;20024;-73
2023/01/17 03:06:06;;;;;;;13.90;6.03;;;;;;;-0.15;100.00;98776.16;5253921;28;20047;-74
2023/01/17 03:08:40;;;;;;;16.02;6.30;;;;;;;-0.19;100.00;98780.09;5265922;28;20058;-74
2023/01/17 03:11:11;;;;;;;15.10;6.25;;;;;;;-0.27;100.00;98778.19;5266351;28;20081;-73
2023/01/17 03:13:42;;;;;;;16.00;6.43;;;;;;;-0.29;100.00;98777.50;5265775;28;20028;-73
2023/01/17 03:16:17;;;;;;;20.25;6.70;;;;;;;-0.33;100.00;98776.97;5262950;28;20035;-73
2023/01/17 03:18:48;;;;;;;;;;;;;;;-0.38;100.00;98781.03;5266604;28;20012;-74
2023/01/17 03:21:20;;;;;;;22.08;6.32;;;;;;;-0.32;100.00;98776.00;5265657;28;19969;-73
2023/01/17 03:23:50;;;;;;;14.93;6.97;;;;;;;-0.32;100.00;98773.34;5266106;28;20055;-73
2023/01/17 03:26:22;;;;;;;18.77;6.90;;;;;;;-0.33;100.00;98769.06;5265119;28;20024;-74
2023/01/17 03:28:52;;;;;;;18.10;6.32;;;;;;;-0.40;100.00;98759.25;5265781;28;20024;-74
2023/01/17 03:31:23;;;;;;;14.90;6.05;;;;;;;-0.48;100.00;98761.81;5265512;28;20104;-73
2023/01/17 03:33:54;;;;;;;18.50;6.47;;;;;;;-0.56;100.00;98766.00;5265914;28;20024;-73
2023/01/17 03:36:24;;;;;;;19.23;6.80;;;;;;;-0.58;100.00;98757.41;5265975;28;20287;-73
2023/01/17 03:38:55;;;;;;;17.48;7.15;;;;;;;-0.61;100.00;98760.34;5265510;28;20035;-73
2023/01/17 03:41:25;;;;;;;17.60;6.88;;;;;;;-0.61;100.00;98762.97;5265564;28;20062;-74
2023/01/17 03:43:56;;;;;;;21.52;8.02;;;;;;;-0.66;100.00;98746.78;5265632;28;20405;-73
2023/01/17 03:46:27;;;;;;;21.13;7.80;;;;;;;-0.70;100.00;98749.84;5265185;28;20024;-73
2023/01/17 03:48:58;;;;;;;20.25;7.93;;;;;;;-0.71;100.00;98746.38;5245524;28;20038;-73
2023/01/17 03:51:28;;;;;;;23.73;9.15;;;;;;;-0.71;100.00;98742.91;5264904;28;20016;-73
2023/01/17 03:53:58;;;;;;;28.25;10.02;;;;;;;-0.72;100.00;98747.38;5265408;28;20039;-73
2023/01/17 03:56:29;;;;;;;25.63;10.75;;;;;;;-0.74;100.00;98746.69;5265109;28;20111;-73
2023/01/17 03:58:59;;;;;;;27.77;10.90;;;;;;;-0.72;100.00;98750.00;5265401;28;20076;-73
2023/01/17 04:01:30;;;;;;;47.58;12.10;;;;;;;-0.73;100.00;98744.88;5264969;28;20085;-73
2023/01/17 04:04:00;;;;;;;33.50;12.05;;;;;;;-0.76;100.00;98745.16;5251540;28;20090;-73
2023/01/17 04:06:31;;;;;;;31.17;10.75;;;;;;;-0.79;100.00;98747.13;5264819;28;20046;-73
2023/01/17 04:09:01;;;;;;;27.05;11.63;;;;;;;-0.80;100.00;98748.09;5265285;28;20023;-73
2023/01/17 04:11:32;;;;;;;30.10;11.07;;;;;;;-0.86;100.00;98747.84;5264792;28;20020;-73
2023/01/17 04:14:02;;;;;;;35.67;11.50;;;;;;;-0.83;100.00;98744.91;5265457;28;20028;-73
2023/01/17 04:16:33;;;;;;;36.60;12.27;;;;;;;-0.86;100.00;98743.41;5262585;28;20024;-73
2023/01/17 04:19:03;;;;;;;38.10;11.88;;;;;;;-0.90;100.00;98744.69;5265379;28;20013;-73
2023/01/17 04:21:33;;;;;;;38.10;12.80;;;;;;;-0.93;100.00;98746.75;5264749;28;20047;-73
2023/01/17 04:24:04;;;;;;;30.70;11.98;;;;;;;-0.95;100.00;98751.34;5265159;28;20149;-73
2023/01/17 04:26:35;;;;;;;32.40;11.75;;;;;;;-0.95;100.00;98746.91;5264642;28;20111;-73
2023/01/17 04:29:05;;;;;;;39.63;12.35;;;;;;;-0.95;100.00;98754.00;5266785;28;20043;-72
2023/01/17 04:31:36;;;;;;;36.10;12.65;;;;;;;-0.96;100.00;98753.13;5269270;28;20385;-73
2023/01/17 04:34:06;;;;;;;36.08;12.55;;;;;;;-0.98;100.00;98752.47;5269785;28;20052;-73
2023/01/17 04:36:36;;;;;;;39.63;13.85;;;;;;;-1.03;100.00;98749.44;5269072;28;20024;-73
2023/01/17 04:39:07;;;;;;;40.38;12.38;;;;;;;-1.07;100.00;98754.16;5250697;28;20732;-73
2023/01/17 04:41:38;;;;;;;35.30;12.27;;;;;;;-1.01;100.00;98749.28;5250715;28;20028;-73
2023/01/17 04:44:08;;;;;;;39.83;13.80;;;;;;;-1.06;100.00;98757.59;5269025;28;20095;-74
2023/01/17 04:46:39;;;;;;;39.47;13.85;;;;;;;-1.07;100.00;98750.69;5268833;28;20576;-74
2023/01/17 04:49:09;;;;;;;48.50;12.98;;;;;;;-1.08;100.00;98759.56;5269298;28;20377;-73
2023/01/17 04:51:39;;;;;;;36.08;12.90;;;;;;;-1.13;100.00;98761.78;5268356;28;20473;-73
2023/01/17 04:54:10;;;;;;;39.35;13.38;;;;;;;-1.15;100.00;98761.94;5269029;28;20473;-72
2023/01/17 04:56:40;;;;;;;35.30;12.60;;;;;;;-1.12;100.00;98760.81;5268842;28;20023;-73
2023/01/17 04:59:11;;;;;;;33.53;12.73;;;;;;;-1.18;100.00;98758.75;5268693;28;20099;-73
2023/01/17 05:01:41;;;;;;;43.42;12.77;;;;;;;-1.23;100.00;98758.34;5267987;28;20050;-73
2023/01/17 05:04:12;;;;;;;39.42;13.98;;;;;;;-1.28;100.00;98753.50;5256125;28;20032;-73
2023/01/17 05:06:43;;;;;;;36.72;14.05;;;;;;;-1.24;100.00;98754.06;5268435;28;20020;-73
2023/01/17 05:09:14;;;;;;;33.83;12.68;;;;;;;-1.25;100.00;98752.41;5268710;28;20032;-71
2023/01/17 05:11:44;;;;;;;32.95;13.02;;;;;;;-1.25;100.00;98755.06;5268536;28;20039;-71
2023/01/17 05:14:14;;;;;;;34.80;12.98;;;;;;;-1.24;100.00;98754.06;5268723;28;20028;-72
2023/01/17 05:16:45;;;;;;;31.38;13.15;;;;;;;-1.27;100.00;98749.91;5265903;28;20214;-71
2023/01/17 05:19:15;;;;;;;36.40;13.10;;;;;;;-1.28;100.00;98750.06;5268738;28;20020;-71
2023/01/17 05:21:46;;;;;;;41.20;14.00;;;;;;;-1.29;100.00;98753.66;5268620;28;20103;-71
2023/01/17 05:24:17;;;;;;;32.45;12.90;;;;;;;-1.31;100.00;98762.53;5268673;28;20115;-71
2023/01/17 05:26:53;;;;;;;37.15;13.35;;;;;;;-1.28;100.00;98757.94;5267960;28;20020;-71
2023/01/17 05:29:23;;;;;;;34.33;13.02;;;;;;;-1.31;100.00;98754.66;5267653;28;20038;-71
2023/01/17 05:31:54;;;;;;;39.47;14.43;;;;;;;-1.27;100.00;98759.59;5268071;28;20031;-71
2023/01/17 05:34:24;;;;;;;38.85;13.40;;;;;;;-1.28;100.00;98765.84;5268149;28;20020;-71
2023/01/17 05:36:55;;;;;;;34.78;14.38;;;;;;;-1.29;100.00;98761.56;5267782;28;20073;-71
2023/01/17 05:39:26;;;;;;;34.85;13.70;;;;;;;-1.31;100.00;98761.69;5268079;28;20380;-71
2023/01/17 05:41:57;;;;;;;40.15;13.32;;;;;;;-1.32;100.00;98760.03;5267429;28;20331;-71
2023/01/17 05:44:28;;;;;;;37.75;13.15;;;;;;;-1.35;100.00;98765.59;5268070;28;20032;-71
2023/01/17 05:46:58;;;;;;;37.08;12.75;;;;;;;-1.36;100.00;98761.28;5249683;28;20031;-71
2023/01/17 05:49:29;;;;;;;36.30;13.50;;;;;;;-1.38;100.00;98766.69;5267810;28;20077;-71
2023/01/17 05:51:59;;;;;;;42.55;13.30;;;;;;;-1.36;100.00;98764.72;5267317;28;20063;-71
2023/01/17 05:54:29;;;;;;;51.00;14.52;;;;;;;-1.35;100.00;98766.41;5268335;28;20051;-71
2023/01/17 05:57:00;;;;;;;36.88;13.27;;;;;;;-1.35;100.00;98766.41;5267316;28;20114;-71
2023/01/17 05:59:30;;;;;;;36.47;13.80;;;;;;;-1.36;100.00;98763.91;5267974;28;20047;-71
2023/01/17 06:02:01;;;;;;;42.88;15.82;;;;;;;-1.36;100.00;98766.53;5264231;28;20191;-71
2023/01/17 06:04:31;;;;;;;39.83;13.73;;;;;;;-1.37;100.00;98765.72;5235645;28;20105;-72
2023/01/17 06:07:02;;;;;;;36.20;13.13;;;;;;;-1.34;100.00;98761.97;5265375;28;20027;-71
2023/01/17 06:09:32;;;;;;;37.13;12.90;;;;;;;-1.35;100.00;98755.06;5267608;28;20112;-71
2023/01/17 06:12:03;;;;;;;37.15;14.00;;;;;;;-1.37;100.00;98757.81;5267179;28;20024;-71
2023/01/17 06:14:33;;;;;;;39.33;13.43;;;;;;;-1.39;100.00;98748.41;5265539;28;20024;-71
2023/01/17 06:17:04;;;;;;;36.65;11.68;;;;;;;-1.39;100.00;98754.50;5266390;28;20428;-71
2023/01/17 06:19:34;;;;;;;41.25;13.63;;;;;;;-1.31;100.00;98752.00;5267441;28;20031;-71
2023/01/17 06:22:05;;;;;;;42.63;13.48;;;;;;;-1.34;100.00;98752.28;5267490;28;20031;-71
2023/01/17 06:24:35;;;;;;;35.58;12.70;;;;;;;-1.38;100.00;98753.53;5267520;28;20035;-71
2023/01/17 06:27:08;;;;;;;44.60;13.20;;;;;;;-1.41;100.00;98750.34;5267119;28;20031;-71
2023/01/17 06:29:39;;;;;;;37.97;13.80;;;;;;;-1.46;100.00;98750.78;5266605;28;20086;-71
2023/01/17 06:32:09;;;;;;;38.92;13.65;;;;;;;-1.52;100.00;98747.88;5267289;28;20051;-71
2023/01/17 06:34:40;;;;;;;40.85;14.52;;;;;;;-1.59;100.00;98743.19;5267499;28;20060;-71
2023/01/17 06:37:11;;;;;;;35.88;13.55;;;;;;;-1.66;100.00;98743.88;5244737;28;20039;-71
2023/01/17 06:39:41;;;;;;;47.33;15.70;;;;;;;-1.70;100.00;98743.34;5265276;28;20575;-71
2023/01/17 06:42:12;;;;;;;46.60;16.83;;;;;;;-1.74;100.00;98746.38;5266936;28;20107;-71
2023/01/17 06:44:42;;;;;;;41.70;15.10;;;;;;;-1.80;100.00;98753.03;5266943;28;20030;-71
2023/01/17 06:47:13;;;;;;;36.38;13.68;;;;;;;-1.85;100.00;98742.13;5266742;28;20459;-71
2023/01/17 06:49:43;;;;;;;44.53;16.30;;;;;;;-1.87;100.00;98739.59;5266666;28;20028;-71
2023/01/17 06:52:14;;;;;;;59.80;18.00;;;;;;;-1.91;100.00;98735.63;5266347;28;20024;-71
2023/01/17 06:54:44;;;;;;;43.47;14.57;;;;;;;-1.88;100.00;98731.88;5266686;28;20031;-71
2023/01/17 06:57:15;;;;;;;38.10;13.20;;;;;;;-1.85;100.00;98731.59;5266276;28;20051;-71
2023/01/17 06:59:45;;;;;;;36.92;13.70;;;;;;;-1.88;100.00;98727.44;5266967;28;20052;-71
2023/01/17 07:02:15;;;;;;;47.65;14.73;;;;;;;-1.89;100.00;98731.03;5260880;28;20016;-71
2023/01/17 07:04:46;;;;;;;44.20;14.60;;;;;;;-1.96;100.00;98739.59;5258867;28;20030;-71
2023/01/17 07:07:16;;;;;;;42.47;13.93;;;;;;;-2.06;100.00;98733.50;5266419;28;20027;-71
2023/01/17 07:09:47;;;;;;;47.13;14.30;;;;;;;-2.13;100.00;98738.50;5266274;28;20141;-71
2023/01/17 07:12:17;;;;;;;40.30;14.88;;;;;;;-2.19;100.00;98741.69;5248200;28;20039;-71
2023/01/17 07:14:48;;;;;;;38.30;13.48;;;;;;;-2.25;100.00;98744.84;5264653;28;20025;-71
2023/01/17 07:17:18;;;;;;;44.58;14.43;;;;;;;-2.32;100.00;98746.34;5266054;28;20052;-71
2023/01/17 07:19:49;;;;;;;50.65;18.05;;;;;;;-2.41;100.00;98754.09;5265911;28;20051;-71
2023/01/17 07:22:19;;;;;;;77.15;27.42;;;;;;;-2.48;100.00;98747.69;5266210;28;20044;-71
2023/01/17 07:24:50;;;;;;;119.43;41.13;;;;;;;-2.49;100.00;98756.53;5266039;28;20070;-71
2023/01/17 07:27:20;;;;;;;102.68;34.03;;;;;;;-2.53;100.00;98751.69;5266089;28;20107;-71
2023/01/17 07:29:51;;;;;;;84.55;27.67;;;;;;;-2.46;100.00;98755.44;5265692;28;20028;-71
2023/01/17 07:32:21;;;;;;;80.68;28.88;;;;;;;-2.40;100.00;98752.28;5265526;28;20115;-71
2023/01/17 07:34:52;;;;;;;79.50;27.13;;;;;;;-2.40;100.00;98757.53;5265949;28;20051;-71
2023/01/17 07:37:24;;;;;;;76.35;26.13;;;;;;;-2.41;100.00;98755.84;5265361;28;20031;-71
2023/01/17 07:39:55;;;;;;;64.18;23.50;;;;;;;-2.42;100.00;98762.09;5243295;28;20096;-72
2023/01/17 07:42:25;;;;;;;71.60;24.40;;;;;;;-2.51;100.00;98763.75;5241685;28;20535;-71
2023/01/17 07:44:56;;;;;;;73.93;24.10;;;;;;;-2.46;100.00;98769.41;5265555;28;20489;-72
2023/01/17 07:47:26;;;;;;;67.90;23.52;;;;;;;-2.48;100.00;98767.88;5266409;28;20141;-72
2023/01/17 07:49:57;;;;;;;75.57;25.48;;;;;;;-2.51;100.00;98763.75;5265244;28;20096;-72
2023/01/17 07:52:27;;;;;;;77.35;27.15;;;;;;;-2.50;100.00;98765.41;5265261;28;20149;-72
2023/01/17 07:54:58;;;;;;;77.00;27.35;;;;;;;-2.45;100.00;98772.88;5265718;28;20054;-73
2023/01/17 07:57:28;;;;;;;69.18;26.13;;;;;;;-2.42;100.00;98773.41;5264599;28;20024;-73
2023/01/17 07:59:58;;;;;;;74.63;25.10;;;;;;;-2.38;100.00;98771.34;5264980;28;20464;-73
2023/01/17 08:02:29;;;;;;;68.82;23.67;;;;;;;-2.27;100.00;98773.03;5264823;28;20028;-72
2023/01/17 08:04:59;;;;;;;57.33;21.10;;;;;;;-2.20;100.00;98768.91;5264656;28;20024;-72
2023/01/17 08:07:30;;;;;;;61.92;20.60;;;;;;;-2.09;100.00;98774.88;5265084;28;20051;-72
2023/01/17 08:10:00;;;;;;;56.78;20.92;;;;;;;-1.97;100.00;98772.94;5264667;28;20020;-73
2023/01/17 08:12:31;;;;;;;49.67;18.23;;;;;;;-1.93;100.00;98766.44;5264995;28;20031;-72
2023/01/17 08:15:01;;;;;;;54.25;20.73;;;;;;;-1.82;100.00;98775.97;5264961;28;20051;-72
2023/01/17 08:17:31;;;;;;;47.55;18.75;;;;;;;-1.63;100.00;98775.16;5264886;28;20537;-73
2023/01/17 08:20:04;;;;;;;38.97;16.73;;;;;;;-1.53;100.00;98765.47;5264371;28;20081;-73
2023/01/17 08:22:35;;;;;;;48.38;16.52;;;;;;;-1.47;100.00;98771.97;5265096;28;20560;-73
2023/01/17 08:25:06;;;;;;;40.22;15.50;;;;;;;-1.39;100.00;98769.47;5264808;28;20110;-73
2023/01/17 08:27:36;;;;;;;48.40;16.30;;;;;;;-1.23;100.00;98772.34;5264433;28;20378;-73
2023/01/17 08:30:07;;;;;;;39.25;15.35;;;;;;;-0.95;100.00;98769.78;5264524;28;20028;-73
2023/01/17 08:32:39;;;;;;;45.30;14.02;;;;;;;-0.67;100.00;98757.47;5263938;28;20527;-73
2023/01/17 08:35:10;;;;;;;46.90;15.35;;;;;;;-0.37;100.00;98765.06;5247295;28;20386;-73
2023/01/17 08:37:40;;;;;;;94.80;16.58;;;;;;;-0.09;100.00;98770.31;5264375;28;20098;-73
2023/01/17 08:40:11;;;;;;;29.95;11.43;;;;;;;0.04;100.00;98770.75;5264774;28;20048;-74
2023/01/17 08:42:43;;;;;;;81.03;15.27;;;;;;;0.22;100.00;98774.25;5246724;28;20046;-74
2023/01/17 08:45:14;;;;;;;32.05;12.32;;;;;;;0.31;100.00;98763.78;5264516;28;20089;-73
2023/01/17 08:47:44;;;;;;;27.55;12.95;;;;;;;0.51;100.00;98763.44;5264426;28;20028;-74
2023/01/17 08:50:19;;;;;;;31.65;12.35;;;;;;;0.66;100.00;98761.09;5264601;28;20491;-75
2023/01/17 08:52:49;;;;;;;37.55;13.13;;;;;;;0.88;100.00;98766.84;5246771;28;20032;-74
2023/01/17 08:55:20;;;;;;;58.05;14.93;;;;;;;1.07;100.00;98768.44;5264297;28;20392;-75
2023/01/17 08:57:50;;;;;;;24.02;10.65;;;;;;;1.18;100.00;98778.75;5264227;28;20055;-75
2023/01/17 09:00:21;;;;;;;25.83;11.65;;;;;;;1.23;100.00;98779.91;5264176;28;20032;-75
2023/01/17 09:02:53;;;;;;;25.67;10.75;;;;;;;1.41;100.00;98781.69;5254134;28;20450;-75
2023/01/17 09:05:23;;;;;;;31.17;13.43;;;;;;;1.52;100.00;98776.09;5262174;28;20024;-75
2023/01/17 09:07:55;;;;;;;31.92;13.85;;;;;;;1.69;100.00;98771.69;5263824;28;20039;-75
2023/01/17 09:10:26;;;;;;;31.00;11.90;;;;;;;1.80;100.00;98774.03;5264218;28;20488;-75
2023/01/17 09:12:56;;;;;;;29.67;11.48;;;;;;;1.88;100.00;98782.00;5246370;28;20028;-75
2023/01/17 09:15:26;;;;;;;25.98;11.25;;;;;;;1.92;100.00;98772.75;5266864;28;20022;-75
2023/01/17 09:17:57;;;;;;;23.02;10.82;;;;;;;1.91;100.00;98775.53;5268246;28;20068;-75
2023/01/17 09:20:29;;;;;;;28.85;11.52;;;;;;;1.70;100.00;98771.53;5268170;28;20020;-75
2023/01/17 09:23:02;;;;;;;29.25;11.43;;;;;;;1.86;100.00;98775.19;5268284;28;20055;-75
2023/01/17 09:25:33;;;;;;;25.05;10.68;;;;;;;2.06;100.00;98779.25;5268396;28;20024;-75
2023/01/17 09:28:04;;;;;;;25.58;10.98;;;;;;;2.24;100.00;98779.91;5267823;28;20393;-75
2023/01/17 09:30:34;;;;;;;26.20;11.38;;;;;;;2.46;100.00;98790.84;5268273;28;20024;-75
2023/01/17 09:33:04;;;;;;;31.42;11.00;;;;;;;2.68;100.00;98803.44;5267838;28;20032;-75
2023/01/17 09:35:35;;;;;;;35.65;12.82;;;;;;;2.39;100.00;98811.88;5268494;28;20027;-75
2023/01/17 09:38:06;;;;;;;27.10;12.23;;;;;;;2.41;100.00;98804.59;5269193;28;20102;-75
2023/01/17 09:40:42;;;;;;;30.27;12.60;;;;;;;2.62;100.00;98811.22;5268140;28;20020;-75
2023/01/17 09:43:24;;;;;;;28.88;12.50;;;;;;;2.60;100.00;98809.56;5267904;28;20019;-75
2023/01/17 09:45:54;;;;;;;22.27;11.25;;;;;;;2.87;100.00;98810.22;5249579;28;20032;-75
2023/01/17 09:48:36;;;;;;;25.23;10.63;;;;;;;3.16;100.00;98822.94;5267501;28;20047;-75
2023/01/17 09:51:18;;;;;;;26.58;11.32;;;;;;;3.07;100.00;98816.00;5267792;28;20028;-75
2023/01/17 09:53:50;;;;;;;21.67;9.10;;;;;;;2.92;100.00;98815.84;5266837;28;20077;-75
2023/01/17 09:56:29;;;;;;;20.10;9.07;;;;;;;2.82;100.00;98820.50;5267797;28;20028;-75
2023/01/17 09:59:35;;;;;;;18.73;9.00;;;;;;;3.01;100.00;98817.50;5267642;28;20023;-75
2023/01/17 10:03:03;;;;;;;30.75;8.80;;;;;;;3.13;100.00;98825.09;5238730;28;20041;-75
2023/01/17 10:06:00;;;;;;;26.27;9.02;;;;;;;2.99;100.00;98831.91;5181209;28;20164;-75
2023/01/17 10:09:02;;;;;;;20.77;9.30;;;;;;;2.82;100.00;98834.56;5167723;28;20221;-74
2023/01/17 10:11:47;;;;;;;22.30;9.35;;;;;;;2.77;100.00;98831.59;5272460;28;20081;-75
2023/01/17 10:14:26;;;;;;;24.30;9.75;;;;;;;2.61;100.00;98842.19;5267423;28;20031;-75
2023/01/17 10:17:01;;;;;;;25.67;9.82;;;;;;;2.48;100.00;98833.88;5266563;28;20451;-75
2023/01/17 10:19:41;;;;;;;27.60;9.20;;;;;;;2.30;100.00;98834.81;5267269;28;20028;-74
2023/01/17 10:23:02;;;;;;;28.45;9.52;;;;;;;2.25;100.00;98834.50;5267188;28;20032;-74
2023/01/17 10:25:50;;;;;;;21.50;9.00;;;;;;;2.14;100.00;98836.63;5232248;28;20042;-74
2023/01/17 10:28:35;;;;;;;29.50;10.73;;;;;;;2.18;100.00;98840.59;5266480;28;20055;-74
2023/01/17 10:31:26;;;;;;;24.25;9.73;;;;;;;2.50;100.00;98848.59;5266853;28;20034;-74
2023/01/17 10:34:05;;;;;;;27.67;10.07;;;;;;;2.59;100.00;98842.31;5267299;28;20073;-74
2023/01/17 10:36:43;;;;;;;27.45;10.20;;;;;;;2.70;100.00;98835.03;5266737;28;20031;-74
2023/01/17 10:39:22;;;;;;;23.83;8.70;;;;;;;2.76;100.00;98839.69;5267049;28;20046;-74
2023/01/17 10:42:14;;;;;;;22.92;8.40;;;;;;;2.86;100.00;98845.63;5256042;28;20132;-74
2023/01/17 10:44:56;;;;;;;20.23;8.23;;;;;;;2.77;100.00;98841.34;5252486;28;20108;-74
2023/01/17 10:47:30;;;;;;;24.20;7.38;;;;;;;2.51;100.00;98839.69;5265561;28;20038;-74
2023/01/17 10:50:04;;;;;;;21.15;8.93;;;;;;;2.28;100.00;98828.88;5265335;28;20054;-74
2023/01/17 10:52:49;;;;;;;23.08;8.07;;;;;;;2.32;100.00;98832.03;5248002;28;20051;-74
2023/01/17 10:55:32;;;;;;;26.98;8.70;;;;;;;2.50;100.00;98832.72;5266727;28;20081;-74
2023/01/17 10:58:02;;;;;;;22.50;8.35;;;;;;;2.52;100.00;98833.38;5265764;28;20544;-74
2023/01/17 11:00:43;;;;;;;18.35;7.82;;;;;;;2.79;100.00;98829.59;5265120;28;20145;-74
2023/01/17 11:03:16;;;;;;;20.08;7.97;;;;;;;2.87;100.00;98825.31;5265905;28;20039;-74
2023/01/17 11:06:41;;;;;;;22.17;7.57;;;;;;;2.66;100.00;98829.28;5265848;28;20032;-74
2023/01/17 11:09:13;;;;;;;19.75;7.22;;;;;;;2.84;100.00;98821.97;5255249;28;20508;-74
2023/01/17 11:11:47;;;;;;;20.00;7.78;;;;;;;3.15;100.00;98825.75;5265493;28;20473;-74
2023/01/17 11:14:24;;;;;;;18.55;6.47;;;;;;;3.47;100.00;98822.22;5265840;28;20027;-74
2023/01/17 11:17:03;;;;;;;24.02;8.20;;;;;;;3.60;100.00;98811.88;5265170;28;20072;-74
2023/01/17 11:19:35;;;;;;;14.82;6.55;;;;;;;3.73;100.00;98812.19;5265399;28;20041;-74
2023/01/17 11:22:08;;;;;;;18.35;8.52;;;;;;;3.73;100.00;98814.00;5265986;28;20542;-74
2023/01/17 11:24:47;;;;;;;18.92;8.70;;;;;;;3.81;100.00;98811.31;5265913;28;20457;-75
2023/01/17 11:27:32;;;;;;;21.63;8.23;;;;;;;3.82;100.00;98812.97;5265322;28;20023;-74
2023/01/17 11:30:16;;;;;;;19.48;7.85;;;;;;;3.85;100.00;98818.75;5265481;28;20099;-74
2023/01/17 11:32:59;;;;;;;25.13;5.80;;;;;;;4.06;100.00;98812.84;5265485;28;20056;-74
2023/01/17 11:35:33;;;;;;;11.45;5.43;;;;;;;4.18;100.00;98813.28;5265314;28;20285;-75
2023/01/17 11:38:18;;;;;;;11.27;5.10;;;;;;;4.17;100.00;98814.31;5264681;28;20377;-75
2023/01/17 11:41:17;;;;;;;16.48;4.88;;;;;;;4.10;100.00;98811.50;5264334;28;20020;-74
2023/01/17 11:44:02;;;;;;;12.60;4.90;;;;;;;4.22;100.00;98809.28;5263401;28;20631;-74
2023/01/17 11:46:33;;;;;;;14.75;5.82;;;;;;;4.19;100.00;98812.28;5263712;28;20063;-75
2023/01/17 11:49:03;;;;;;;22.17;6.65;;;;;;;4.25;100.00;98808.94;5264956;28;20099;-75
2023/01/17 11:51:40;;;;;;;17.92;5.70;;;;;;;4.30;100.00;98805.75;5263883;28;20108;-74
2023/01/17 11:54:21;;;;;;;16.92;5.30;;;;;;;4.30;100.00;98806.56;5264270;28;20157;-74
2023/01/17 11:57:00;;;;;;;14.00;5.28;;;;;;;4.19;100.00;98806.16;5263818;28;20063;-74
2023/01/17 11:59:34;;;;;;;26.35;6.95;;;;;;;4.21;100.00;98806.78;5253071;28;20091;-75
2023/01/17 12:02:22;;;;;;;17.25;6.22;;;;;;;4.30;100.00;98793.28;5263467;28;20417;-75
2023/01/17 12:05:14;;;;;;;16.27;5.20;;;;;;;4.06;100.00;98788.13;5263695;28;20063;-75
2023/01/17 12:08:29;;;;;;;21.42;6.55;;;;;;;4.04;100.00;98785.66;5263765;28;20389;-75
2023/01/17 12:11:25;;;;;;;18.52;6.15;;;;;;;4.30;100.00;98784.50;5178358;28;20116;-75
2023/01/17 12:14:15;;;;;;;21.73;4.22;;;;;;;4.60;100.00;98780.97;5251418;28;20032;-74
2023/01/17 12:17:10;;;;;;;10.48;3.88;;;;;;;4.74;100.00;98784.69;5261745;28;20028;-74
2023/01/17 12:20:00;;;;;;;14.93;3.97;;;;;;;4.70;100.00;98777.25;5263109;28;20020;-74
2023/01/17 12:22:58;;;;;;;14.63;4.53;;;;;;;4.72;100.00;98770.75;5246927;28;20032;-75
2023/01/17 12:25:54;;;;;;;12.77;5.50;;;;;;;4.52;100.00;98773.09;5263207;28;20028;-75
2023/01/17 12:28:33;;;;;;;8.70;4.28;;;;;;;4.55;100.00;98770.06;5263497;28;20293;-75
2023/01/17 12:31:06;;;;;;;12.68;5.00;;;;;;;4.40;100.00;98767.34;5262309;28;20040;-75
2023/01/17 12:33:51;;;;;;;14.38;4.50;;;;;;;4.39;100.00;98770.19;5264830;28;20492;-75
2023/01/17 12:36:31;;;;;;;12.95;5.15;;;;;;;4.39;100.00;98768.34;5264153;28;20066;-75
2023/01/17 12:39:06;;;;;;;13.07;5.32;;;;;;;4.45;100.00;98766.00;5264859;28;20020;-75
2023/01/17 12:41:49;;;;;;;14.95;4.00;;;;;;;4.67;100.00;98757.19;5264777;28;20025;-74
2023/01/17 12:44:31;;;;;;;14.02;4.20;;;;;;;4.72;100.00;98756.63;5264317;28;20032;-75
2023/01/17 12:47:04;;;;;;;23.70;3.92;;;;;;;4.72;100.00;98759.28;5263670;28;20077;-75
2023/01/17 12:49:41;;;;;;;16.33;4.70;;;;;;;4.53;100.00;98758.78;5265411;28;20358;-75
2023/01/17 12:52:17;;;;;;;13.18;5.00;;;;;;;4.60;100.00;98750.94;5250813;28;20431;-75
2023/01/17 12:54:54;;;;;;;15.02;4.25;;;;;;;4.82;100.00;98757.19;5268989;28;20077;-75
2023/01/17 12:57:36;;;;;;;12.55;3.70;;;;;;;4.81;100.00;98759.03;5268383;28;20028;-75
2023/01/17 13:00:13;;;;;;;11.65;2.53;;;;;;;4.78;100.00;98762.06;5268538;28;20027;-75
2023/01/17 13:02:52;;;;;;;8.00;2.05;;;;;;;4.79;100.00;98753.09;5267404;28;20482;-75
2023/01/17 13:05:35;;;;;;;6.80;1.77;;;;;;;4.76;100.00;98747.31;5267682;28;20397;-75
2023/01/17 13:08:24;;;;;;;8.32;2.83;;;;;;;5.03;100.00;98744.06;5268452;28;20049;-75
2023/01/17 13:11:02;;;;;;;6.00;2.70;;;;;;;4.87;100.00;98738.88;5256959;28;20028;-76
2023/01/17 13:14:08;;;;;;;7.18;2.55;;;;;;;4.75;100.00;98735.84;5268434;28;20031;-75
2023/01/17 13:16:43;;;;;;;6.78;4.07;;;;;;;4.72;100.00;98732.72;5267992;28;20019;-75
2023/01/17 13:19:27;;;;;;;5.03;1.70;;;;;;;4.84;100.00;98729.47;5268396;28;20016;-75